sensor_id;sensor_type;location;lat;lon;timestamp;pressure;altitude;pressure_sealevel;temperature;humidity
44697;BME280;57264;47.480;19.354;2022-10-17T14:26:26;100451.16;;;24.03;66.64
44697;BME280;57264;47.480;19.354;2022-10-17T14:29:13;100448.19;;;24.10;66.37
44697;BME280;57264;47.480;19.354;2022-10-17T14:31:42;100446.59;;;24.14;65.70
44697;BME280;57264;47.480;19.354;2022-10-17T14:34:21;100450.31;;;24.03;66.96
44697;BME280;57264;47.480;19.354;2022-10-17T14:36:50;100447.44;;;24.15;66.21
44697;BME280;57264;47.480;19.354;2022-10-17T14:54:18;100451.22;;;23.70;35.86
44697;BME280;57264;47.480;19.354;2022-10-17T14:56:49;100444.84;;;22.34;38.38
44697;BME280;57264;47.480;19.354;2022-10-17T14:59:16;100448.06;;;21.67;40.31
44697;BME280;57264;47.480;19.354;2022-10-17T15:01:50;100445.78;;;20.93;42.02
44697;BME280;57264;47.480;19.354;2022-10-17T15:04:16;100448.22;;;20.40;43.13
44697;BME280;57264;47.480;19.354;2022-10-17T15:06:42;100457.34;;;20.04;43.63
44697;BME280;57264;47.480;19.354;2022-10-17T15:09:09;100446.31;;;19.74;44.60
44697;BME280;57264;47.480;19.354;2022-10-17T15:11:35;100451.44;;;19.45;44.99
44697;BME280;57264;47.480;19.354;2022-10-17T15:14:01;100441.00;;;19.35;45.75
44697;BME280;57264;47.480;19.354;2022-10-17T15:16:30;100444.16;;;19.14;46.59
44697;BME280;57264;47.480;19.354;2022-10-17T15:18:56;100450.97;;;18.79;47.57
44697;BME280;57264;47.480;19.354;2022-10-17T15:21:23;100450.00;;;18.60;48.01
44697;BME280;57264;47.480;19.354;2022-10-17T15:23:50;100454.34;;;18.36;49.04
44697;BME280;57264;47.480;19.354;2022-10-17T15:26:21;100447.28;;;18.22;49.61
44697;BME280;57264;47.480;19.354;2022-10-17T15:28:49;100454.34;;;17.91;51.34
44697;BME280;57264;47.480;19.354;2022-10-17T15:31:18;100457.53;;;17.68;51.13
44697;BME280;57264;47.480;19.354;2022-10-17T15:33:44;100456.34;;;17.44;52.98
44697;BME280;57264;47.480;19.354;2022-10-17T15:36:29;100455.09;;;17.20;54.13
44697;BME280;57264;47.480;19.354;2022-10-17T15:38:59;100458.69;;;16.94;55.39
44697;BME280;57264;47.480;19.354;2022-10-17T15:41:26;100459.88;;;16.71;56.54
44697;BME280;57264;47.480;19.354;2022-10-17T15:43:52;100455.44;;;16.50;57.24
44697;BME280;57264;47.480;19.354;2022-10-17T15:46:26;100463.13;;;16.27;58.44
44697;BME280;57264;47.480;19.354;2022-10-17T15:48:53;100461.97;;;16.01;59.29
44697;BME280;57264;47.480;19.354;2022-10-17T15:51:19;100481.56;;;15.76;59.10
44697;BME280;57264;47.480;19.354;2022-10-17T15:53:45;100479.53;;;15.57;59.31
44697;BME280;57264;47.480;19.354;2022-10-17T15:58:43;100478.47;;;15.23;60.89
44697;BME280;57264;47.480;19.354;2022-10-17T16:01:18;100482.94;;;15.09;61.93
44697;BME280;57264;47.480;19.354;2022-10-17T16:03:44;100476.28;;;14.90;62.71
44697;BME280;57264;47.480;19.354;2022-10-17T16:06:11;100482.41;;;14.71;63.39
44697;BME280;57264;47.480;19.354;2022-10-17T16:08:37;100481.31;;;14.50;64.29
44697;BME280;57264;47.480;19.354;2022-10-17T16:11:02;100483.22;;;14.35;64.86
44697;BME280;57264;47.480;19.354;2022-10-17T16:13:28;100490.56;;;14.20;64.92
44697;BME280;57264;47.480;19.354;2022-10-17T16:15:53;100488.06;;;14.03;65.35
44697;BME280;57264;47.480;19.354;2022-10-17T16:18:19;100488.91;;;13.89;65.87
44697;BME280;57264;47.480;19.354;2022-10-17T16:20:45;100489.56;;;13.76;66.24
44697;BME280;57264;47.480;19.354;2022-10-17T16:23:12;100490.22;;;13.63;66.70
44697;BME280;57264;47.480;19.354;2022-10-17T16:25:38;100484.25;;;13.53;67.00
44697;BME280;57264;47.480;19.354;2022-10-17T16:28:04;100492.47;;;13.45;67.35
44697;BME280;57264;47.480;19.354;2022-10-17T16:30:36;100493.84;;;13.41;67.65
44697;BME280;57264;47.480;19.354;2022-10-17T16:33:06;100493.59;;;13.35;67.65
44697;BME280;57264;47.480;19.354;2022-10-17T16:35:32;100497.03;;;13.29;67.91
44697;BME280;57264;47.480;19.354;2022-10-17T16:37:58;100494.63;;;13.26;68.25
44697;BME280;57264;47.480;19.354;2022-10-17T16:40:23;100494.78;;;13.33;67.51
44697;BME280;57264;47.480;19.354;2022-10-17T16:42:49;100491.72;;;13.36;67.36
44697;BME280;57264;47.480;19.354;2022-10-17T16:45:21;100499.28;;;13.41;67.07
44697;BME280;57264;47.480;19.354;2022-10-17T16:47:52;100497.97;;;13.51;66.63
44697;BME280;57264;47.480;19.354;2022-10-17T16:50:23;100493.97;;;13.62;66.09
44697;BME280;57264;47.480;19.354;2022-10-17T16:52:52;100494.91;;;13.69;65.89
44697;BME280;57264;47.480;19.354;2022-10-17T16:55:21;100498.28;;;13.71;65.90
44697;BME280;57264;47.480;19.354;2022-10-17T16:57:50;100502.03;;;13.70;65.99
44697;BME280;57264;47.480;19.354;2022-10-17T17:00:16;100504.47;;;13.65;66.11
44697;BME280;57264;47.480;19.354;2022-10-17T17:02:42;100501.19;;;13.70;65.96
44697;BME280;57264;47.480;19.354;2022-10-17T17:05:08;100504.72;;;13.70;65.92
44697;BME280;57264;47.480;19.354;2022-10-17T17:07:33;100517.47;;;13.70;65.82
44697;BME280;57264;47.480;19.354;2022-10-17T17:09:59;100509.41;;;13.62;66.09
44697;BME280;57264;47.480;19.354;2022-10-17T17:12:24;100503.06;;;13.54;66.30
44697;BME280;57264;47.480;19.354;2022-10-17T17:14:50;100502.50;;;13.59;66.09
44697;BME280;57264;47.480;19.354;2022-10-17T17:17:15;100516.41;;;13.56;66.13
44697;BME280;57264;47.480;19.354;2022-10-17T17:19:41;100513.19;;;13.61;66.22
44697;BME280;57264;47.480;19.354;2022-10-17T17:22:06;100514.94;;;13.68;65.75
44697;BME280;57264;47.480;19.354;2022-10-17T17:24:32;100514.19;;;13.74;65.43
44697;BME280;57264;47.480;19.354;2022-10-17T17:26:57;100507.84;;;13.82;64.99
44697;BME280;57264;47.480;19.354;2022-10-17T17:29:23;100514.19;;;13.74;65.50
44697;BME280;57264;47.480;19.354;2022-10-17T17:31:49;100508.75;;;13.74;65.20
44697;BME280;57264;47.480;19.354;2022-10-17T17:34:15;100520.66;;;13.73;65.15
44697;BME280;57264;47.480;19.354;2022-10-17T17:36:41;100521.03;;;13.70;65.24
44697;BME280;57264;47.480;19.354;2022-10-17T17:39:10;100511.47;;;13.74;65.12
44697;BME280;57264;47.480;19.354;2022-10-17T17:41:37;100519.53;;;13.68;65.46
44697;BME280;57264;47.480;19.354;2022-10-17T17:44:04;100514.00;;;13.61;65.84
44697;BME280;57264;47.480;19.354;2022-10-17T17:46:30;100512.44;;;13.67;65.23
44697;BME280;57264;47.480;19.354;2022-10-17T17:48:57;100514.84;;;13.76;64.74
44697;BME280;57264;47.480;19.354;2022-10-17T17:51:25;100516.25;;;13.72;64.83
44697;BME280;57264;47.480;19.354;2022-10-17T17:53:51;100513.63;;;13.64;65.27
44697;BME280;57264;47.480;19.354;2022-10-17T17:56:20;100501.75;;;13.50;65.50
44697;BME280;57264;47.480;19.354;2022-10-17T17:58:46;100506.78;;;13.39;66.03
44697;BME280;57264;47.480;19.354;2022-10-17T18:01:19;100503.13;;;13.31;66.14
44697;BME280;57264;47.480;19.354;2022-10-17T18:03:48;100505.66;;;13.25;66.33
44697;BME280;57264;47.480;19.354;2022-10-17T18:06:14;100499.22;;;13.26;66.08
44697;BME280;57264;47.480;19.354;2022-10-17T18:08:44;100504.16;;;13.22;66.36
44697;BME280;57264;47.480;19.354;2022-10-17T18:11:10;100501.47;;;13.22;66.47
44697;BME280;57264;47.480;19.354;2022-10-17T18:13:36;100499.03;;;13.12;66.93
44697;BME280;57264;47.480;19.354;2022-10-17T18:16:02;100500.22;;;13.10;66.98
44697;BME280;57264;47.480;19.354;2022-10-17T18:18:37;100500.88;;;13.12;66.73
44697;BME280;57264;47.480;19.354;2022-10-17T18:21:03;100503.59;;;13.12;66.85
44697;BME280;57264;47.480;19.354;2022-10-17T18:23:28;100497.72;;;13.08;67.03
44697;BME280;57264;47.480;19.354;2022-10-17T18:25:54;100500.09;;;13.03;67.21
44697;BME280;57264;47.480;19.354;2022-10-17T18:28:22;100502.53;;;12.98;67.23
44697;BME280;57264;47.480;19.354;2022-10-17T18:30:50;100508.69;;;12.92;67.66
44697;BME280;57264;47.480;19.354;2022-10-17T18:33:18;100507.81;;;12.91;67.57
44697;BME280;57264;47.480;19.354;2022-10-17T18:35:45;100504.09;;;12.92;67.53
44697;BME280;57264;47.480;19.354;2022-10-17T18:38:12;100500.72;;;12.90;67.80
44697;BME280;57264;47.480;19.354;2022-10-17T18:40:40;100503.44;;;12.90;67.45
44697;BME280;57264;47.480;19.354;2022-10-17T18:43:08;100499.22;;;12.88;67.72
44697;BME280;57264;47.480;19.354;2022-10-17T18:45:34;100500.06;;;12.88;67.55
44697;BME280;57264;47.480;19.354;2022-10-17T18:48:03;100501.72;;;12.89;67.60
44697;BME280;57264;47.480;19.354;2022-10-17T18:50:34;100499.34;;;12.94;67.15
44697;BME280;57264;47.480;19.354;2022-10-17T18:53:03;100500.00;;;12.96;67.08
44697;BME280;57264;47.480;19.354;2022-10-17T18:55:38;100504.31;;;13.06;66.82
44697;BME280;57264;47.480;19.354;2022-10-17T18:58:03;100502.09;;;13.09;66.63
44697;BME280;57264;47.480;19.354;2022-10-17T19:00:29;100506.38;;;13.04;66.98
44697;BME280;57264;47.480;19.354;2022-10-17T19:02:54;100498.78;;;12.99;67.29
44697;BME280;57264;47.480;19.354;2022-10-17T19:05:20;100507.81;;;12.91;67.56
44697;BME280;57264;47.480;19.354;2022-10-17T19:07:45;100497.69;;;12.85;67.72
44697;BME280;57264;47.480;19.354;2022-10-17T19:10:11;100499.28;;;12.80;68.20
44697;BME280;57264;47.480;19.354;2022-10-17T19:12:36;100492.88;;;12.72;68.17
44697;BME280;57264;47.480;19.354;2022-10-17T19:15:04;100498.56;;;12.63;68.46
44697;BME280;57264;47.480;19.354;2022-10-17T19:17:31;100496.38;;;12.58;68.85
44697;BME280;57264;47.480;19.354;2022-10-17T19:19:57;100489.63;;;12.54;69.00
44697;BME280;57264;47.480;19.354;2022-10-17T19:22:22;100489.16;;;12.50;69.00
44697;BME280;57264;47.480;19.354;2022-10-17T19:24:48;100488.94;;;12.52;69.05
44697;BME280;57264;47.480;19.354;2022-10-17T19:27:13;100488.78;;;12.53;68.98
44697;BME280;57264;47.480;19.354;2022-10-17T19:29:39;100487.44;;;12.49;69.22
44697;BME280;57264;47.480;19.354;2022-10-17T19:32:09;100486.50;;;12.42;69.32
44697;BME280;57264;47.480;19.354;2022-10-17T19:34:43;100487.88;;;12.38;69.57
44697;BME280;57264;47.480;19.354;2022-10-17T19:37:17;100497.66;;;12.39;69.49
44697;BME280;57264;47.480;19.354;2022-10-17T19:39:45;100491.78;;;12.35;69.84
44697;BME280;57264;47.480;19.354;2022-10-17T19:42:13;100499.03;;;12.35;69.71
44697;BME280;57264;47.480;19.354;2022-10-17T19:44:39;100493.50;;;12.28;69.93
44697;BME280;57264;47.480;19.354;2022-10-17T19:47:06;100489.47;;;12.24;70.42
44697;BME280;57264;47.480;19.354;2022-10-17T19:49:32;100491.00;;;12.19;70.58
44697;BME280;57264;47.480;19.354;2022-10-17T19:51:57;100488.66;;;12.15;70.84
44697;BME280;57264;47.480;19.354;2022-10-17T19:54:24;100490.66;;;12.22;70.29
44697;BME280;57264;47.480;19.354;2022-10-17T19:56:57;100486.94;;;12.23;70.56
44697;BME280;57264;47.480;19.354;2022-10-17T19:59:32;100482.84;;;12.27;70.31
44697;BME280;57264;47.480;19.354;2022-10-17T20:02:03;100489.59;;;12.31;69.93
44697;BME280;57264;47.480;19.354;2022-10-17T20:04:31;100484.78;;;12.41;70.05
44697;BME280;57264;47.480;19.354;2022-10-17T20:06:57;100494.25;;;12.45;69.87
44697;BME280;57264;47.480;19.354;2022-10-17T20:09:27;100489.03;;;12.44;69.74
44697;BME280;57264;47.480;19.354;2022-10-17T20:11:54;100486.13;;;12.45;69.90
44697;BME280;57264;47.480;19.354;2022-10-17T20:14:21;100492.28;;;12.62;69.54
44697;BME280;57264;47.480;19.354;2022-10-17T20:16:50;100485.28;;;12.68;69.01
44697;BME280;57264;47.480;19.354;2022-10-17T20:19:16;100490.88;;;12.66;69.04
44697;BME280;57264;47.480;19.354;2022-10-17T20:21:42;100490.00;;;12.74;68.96
44697;BME280;57264;47.480;19.354;2022-10-17T20:24:12;100497.13;;;12.75;68.80
44697;BME280;57264;47.480;19.354;2022-10-17T20:26:38;100494.75;;;12.72;68.85
44697;BME280;57264;47.480;19.354;2022-10-17T20:29:10;100487.84;;;12.69;68.96
44697;BME280;57264;47.480;19.354;2022-10-17T20:31:36;100492.75;;;12.66;69.11
44697;BME280;57264;47.480;19.354;2022-10-17T20:34:03;100493.66;;;12.58;69.65
44697;BME280;57264;47.480;19.354;2022-10-17T20:36:28;100493.19;;;12.54;69.85
44697;BME280;57264;47.480;19.354;2022-10-17T20:38:55;100489.16;;;12.50;70.14
44697;BME280;57264;47.480;19.354;2022-10-17T20:41:22;100491.19;;;12.48;70.27
44697;BME280;57264;47.480;19.354;2022-10-17T20:43:52;100489.50;;;12.47;70.32
44697;BME280;57264;47.480;19.354;2022-10-17T20:46:20;100481.75;;;12.44;70.63
44697;BME280;57264;47.480;19.354;2022-10-17T20:48:50;100498.72;;;12.38;70.72
44697;BME280;57264;47.480;19.354;2022-10-17T20:51:16;100488.94;;;12.29;71.21
44697;BME280;57264;47.480;19.354;2022-10-17T20:53:41;100497.75;;;12.23;71.62
44697;BME280;57264;47.480;19.354;2022-10-17T20:56:10;100494.88;;;12.24;71.73
44697;BME280;57264;47.480;19.354;2022-10-17T20:58:37;100490.66;;;12.22;71.73
44697;BME280;57264;47.480;19.354;2022-10-17T21:01:09;100483.53;;;12.21;71.99
44697;BME280;57264;47.480;19.354;2022-10-17T21:03:36;100485.25;;;12.22;71.85
44697;BME280;57264;47.480;19.354;2022-10-17T21:06:02;100482.72;;;12.20;71.55
44697;BME280;57264;47.480;19.354;2022-10-17T21:08:28;100491.69;;;12.21;71.70
44697;BME280;57264;47.480;19.354;2022-10-17T21:10:53;100486.50;;;12.11;71.68
44697;BME280;57264;47.480;19.354;2022-10-17T21:13:19;100486.53;;;12.03;72.20
44697;BME280;57264;47.480;19.354;2022-10-17T21:15:44;100490.09;;;11.95;73.14
44697;BME280;57264;47.480;19.354;2022-10-17T21:18:09;100489.59;;;11.91;73.13
44697;BME280;57264;47.480;19.354;2022-10-17T21:20:35;100481.69;;;11.90;72.94
44697;BME280;57264;47.480;19.354;2022-10-17T21:23:00;100489.44;;;11.93;72.92
44697;BME280;57264;47.480;19.354;2022-10-17T21:25:26;100480.75;;;12.06;72.77
44697;BME280;57264;47.480;19.354;2022-10-17T21:27:51;100482.59;;;12.13;72.21
44697;BME280;57264;47.480;19.354;2022-10-17T21:30:17;100486.78;;;12.16;72.24
44697;BME280;57264;47.480;19.354;2022-10-17T21:32:44;100482.94;;;12.10;72.11
44697;BME280;57264;47.480;19.354;2022-10-17T21:35:09;100478.59;;;12.01;72.36
44697;BME280;57264;47.480;19.354;2022-10-17T21:37:35;100475.25;;;11.91;72.51
44697;BME280;57264;47.480;19.354;2022-10-17T21:40:00;100473.19;;;11.85;73.08
44697;BME280;57264;47.480;19.354;2022-10-17T21:42:26;100478.13;;;11.81;73.51
44697;BME280;57264;47.480;19.354;2022-10-17T21:44:51;100473.56;;;11.82;73.66
44697;BME280;57264;47.480;19.354;2022-10-17T21:47:17;100477.09;;;11.82;73.72
44697;BME280;57264;47.480;19.354;2022-10-17T21:49:42;100476.06;;;11.83;73.59
44697;BME280;57264;47.480;19.354;2022-10-17T21:52:08;100471.69;;;11.82;73.68
44697;BME280;57264;47.480;19.354;2022-10-17T21:54:33;100468.47;;;11.79;73.61
44697;BME280;57264;47.480;19.354;2022-10-17T21:56:59;100474.59;;;11.72;73.78
44697;BME280;57264;47.480;19.354;2022-10-17T21:59:24;100478.66;;;11.68;74.05
44697;BME280;57264;47.480;19.354;2022-10-17T22:01:50;100487.16;;;11.65;74.26
44697;BME280;57264;47.480;19.354;2022-10-17T22:04:17;100470.56;;;11.60;74.89
44697;BME280;57264;47.480;19.354;2022-10-17T22:06:46;100477.00;;;11.59;74.50
44697;BME280;57264;47.480;19.354;2022-10-17T22:09:15;100474.84;;;11.54;74.94
44697;BME280;57264;47.480;19.354;2022-10-17T22:11:44;100479.25;;;11.47;75.09
44697;BME280;57264;47.480;19.354;2022-10-17T22:14:12;100465.56;;;11.41;75.60
44697;BME280;57264;47.480;19.354;2022-10-17T22:16:38;100461.69;;;11.35;75.75
44697;BME280;57264;47.480;19.354;2022-10-17T22:19:05;100464.75;;;11.32;75.82
44697;BME280;57264;47.480;19.354;2022-10-17T22:21:31;100459.84;;;11.27;76.29
44697;BME280;57264;47.480;19.354;2022-10-17T22:24:02;100455.13;;;11.21;76.35
44697;BME280;57264;47.480;19.354;2022-10-17T22:26:29;100464.59;;;11.17;76.91
44697;BME280;57264;47.480;19.354;2022-10-17T22:28:55;100458.16;;;11.10;76.98
44697;BME280;57264;47.480;19.354;2022-10-17T22:31:21;100460.88;;;11.02;77.82
44697;BME280;57264;47.480;19.354;2022-10-17T22:33:47;100466.97;;;10.96;77.96
44697;BME280;57264;47.480;19.354;2022-10-17T22:36:13;100459.72;;;10.88;78.31
44697;BME280;57264;47.480;19.354;2022-10-17T22:38:39;100458.38;;;10.84;78.53
44697;BME280;57264;47.480;19.354;2022-10-17T22:41:04;100459.22;;;10.84;78.80
44697;BME280;57264;47.480;19.354;2022-10-17T22:43:30;100458.53;;;10.82;78.80
44697;BME280;57264;47.480;19.354;2022-10-17T22:46:01;100453.81;;;10.76;78.93
44697;BME280;57264;47.480;19.354;2022-10-17T22:48:27;100465.66;;;10.75;79.24
44697;BME280;57264;47.480;19.354;2022-10-17T22:50:54;100465.28;;;10.78;79.62
44697;BME280;57264;47.480;19.354;2022-10-17T22:53:20;100463.63;;;10.77;79.47
44697;BME280;57264;47.480;19.354;2022-10-17T22:55:55;100464.28;;;10.79;79.38
44697;BME280;57264;47.480;19.354;2022-10-17T22:58:22;100464.28;;;10.79;79.12
44697;BME280;57264;47.480;19.354;2022-10-17T23:00:50;100465.97;;;10.80;79.19
44697;BME280;57264;47.480;19.354;2022-10-17T23:03:16;100456.00;;;10.81;79.15
44697;BME280;57264;47.480;19.354;2022-10-17T23:05:42;100464.78;;;10.74;79.17
44697;BME280;57264;47.480;19.354;2022-10-17T23:08:07;100455.16;;;10.72;79.44
44697;BME280;57264;47.480;19.354;2022-10-17T23:10:33;100454.47;;;10.70;79.73
44697;BME280;57264;47.480;19.354;2022-10-17T23:12:58;100457.88;;;10.88;79.45
44697;BME280;57264;47.480;19.354;2022-10-17T23:15:24;100452.44;;;11.05;79.08
44697;BME280;57264;47.480;19.354;2022-10-17T23:17:49;100454.13;;;11.14;78.38
44697;BME280;57264;47.480;19.354;2022-10-17T23:20:15;100449.06;;;11.11;77.71
44697;BME280;57264;47.480;19.354;2022-10-17T23:22:40;100448.03;;;11.04;78.27
44697;BME280;57264;47.480;19.354;2022-10-17T23:25:06;100444.34;;;10.97;78.00
44697;BME280;57264;47.480;19.354;2022-10-17T23:27:34;100450.59;;;10.89;78.32
44697;BME280;57264;47.480;19.354;2022-10-17T23:30:01;100449.41;;;10.83;78.70
44697;BME280;57264;47.480;19.354;2022-10-17T23:32:26;100440.81;;;10.80;78.89
44697;BME280;57264;47.480;19.354;2022-10-17T23:34:52;100437.59;;;10.84;78.95
44697;BME280;57264;47.480;19.354;2022-10-17T23:37:17;100436.25;;;10.88;79.23
44697;BME280;57264;47.480;19.354;2022-10-17T23:39:43;100432.03;;;10.94;78.75
44697;BME280;57264;47.480;19.354;2022-10-17T23:42:08;100434.22;;;10.99;78.81
44697;BME280;57264;47.480;19.354;2022-10-17T23:44:34;100436.25;;;10.97;78.36
44697;BME280;57264;47.480;19.354;2022-10-17T23:46:59;100435.19;;;11.06;78.15
44697;BME280;57264;47.480;19.354;2022-10-17T23:49:25;100432.69;;;11.12;78.15
44697;BME280;57264;47.480;19.354;2022-10-17T23:51:50;100431.78;;;11.20;77.70
44697;BME280;57264;47.480;19.354;2022-10-17T23:54:16;100434.84;;;11.25;77.52
44697;BME280;57264;47.480;19.354;2022-10-17T23:56:41;100430.78;;;11.21;77.42
44697;BME280;57264;47.480;19.354;2022-10-17T23:59:07;100421.50;;;11.24;77.41
